sensor_id;sensor_type;location;lat;lon;timestamp;pressure;altitude;pressure_sealevel;temperature;humidity
47592;BME280;33317;33.356;-117.184;2024-03-02T00:01:07;99525.11;;;29.51;26.19
47592;BME280;33317;33.356;-117.184;2024-03-02T00:03:36;99524.11;;;29.52;26.09
47592;BME280;33317;33.356;-117.184;2024-03-02T00:06:05;99526.05;;;29.39;25.41
47592;BME280;33317;33.356;-117.184;2024-03-02T00:08:34;99520.67;;;29.20;25.78
47592;BME280;33317;33.356;-117.184;2024-03-02T00:11:03;99519.25;;;29.69;26.04
47592;BME280;33317;33.356;-117.184;2024-03-02T00:13:31;99519.26;;;29.40;26.17
47592;BME280;33317;33.356;-117.184;2024-03-02T00:16:00;99520.99;;;29.62;26.12
47592;BME280;33317;33.356;-117.184;2024-03-02T00:18:31;99519.30;;;29.58;26.29
47592;BME280;33317;33.356;-117.184;2024-03-02T00:21:00;99519.31;;;29.22;26.24
47592;BME280;33317;33.356;-117.184;2024-03-02T00:23:30;99516.03;;;29.46;26.25
47592;BME280;33317;33.356;-117.184;2024-03-02T00:25:58;99519.56;;;29.43;26.50
47592;BME280;33317;33.356;-117.184;2024-03-02T00:28:30;99515.50;;;29.13;26.54
47592;BME280;33317;33.356;-117.184;2024-03-02T00:31:02;99516.62;;;29.38;26.63
47592;BME280;33317;33.356;-117.184;2024-03-02T00:33:35;99519.04;;;29.35;26.42
47592;BME280;33317;33.356;-117.184;2024-03-02T00:36:04;99517.64;;;29.52;26.84
47592;BME280;33317;33.356;-117.184;2024-03-02T00:38:33;99515.89;;;29.22;26.88
47592;BME280;33317;33.356;-117.184;2024-03-02T00:41:05;99520.01;;;29.20;26.73
47592;BME280;33317;33.356;-117.184;2024-03-02T00:43:57;99524.99;;;29.16;27.00
47592;BME280;33317;33.356;-117.184;2024-03-02T00:46:27;99524.16;;;29.14;26.86
47592;BME280;33317;33.356;-117.184;2024-03-02T00:48:57;99533.47;;;29.09;27.09
47592;BME280;33317;33.356;-117.184;2024-03-02T00:51:26;99537.56;;;29.05;26.95
47592;BME280;33317;33.356;-117.184;2024-03-02T00:53:55;99540.37;;;28.99;26.91
47592;BME280;33317;33.356;-117.184;2024-03-02T00:56:24;99546.91;;;28.93;27.59
47592;BME280;33317;33.356;-117.184;2024-03-02T00:58:53;99553.33;;;28.88;27.26
47592;BME280;33317;33.356;-117.184;2024-03-02T01:01:21;99561.62;;;28.84;27.69
47592;BME280;33317;33.356;-117.184;2024-03-02T01:03:50;99561.81;;;28.83;27.15
47592;BME280;33317;33.356;-117.184;2024-03-02T01:06:19;99562.32;;;28.79;27.51
47592;BME280;33317;33.356;-117.184;2024-03-02T01:08:48;99566.74;;;28.71;27.79
47592;BME280;33317;33.356;-117.184;2024-03-02T01:11:17;99572.08;;;28.85;27.82
47592;BME280;33317;33.356;-117.184;2024-03-02T01:13:46;99573.57;;;28.97;28.02
47592;BME280;33317;33.356;-117.184;2024-03-02T01:16:14;99577.49;;;28.33;28.10
47592;BME280;33317;33.356;-117.184;2024-03-02T01:18:43;99580.02;;;28.28;28.31
47592;BME280;33317;33.356;-117.184;2024-03-02T01:21:11;99586.12;;;28.44;28.39
47592;BME280;33317;33.356;-117.184;2024-03-02T01:23:39;99585.23;;;28.64;28.40
47592;BME280;33317;33.356;-117.184;2024-03-02T01:26:07;99583.33;;;28.56;28.36
47592;BME280;33317;33.356;-117.184;2024-03-02T01:28:36;99586.00;;;28.46;28.60
47592;BME280;33317;33.356;-117.184;2024-03-02T01:31:04;99591.16;;;28.07;28.84
47592;BME280;33317;33.356;-117.184;2024-03-02T01:33:33;99591.45;;;28.31;29.01
47592;BME280;33317;33.356;-117.184;2024-03-02T01:36:01;99590.64;;;28.15;29.34
47592;BME280;33317;33.356;-117.184;2024-03-02T01:38:29;99590.67;;;27.83;29.42
47592;BME280;33317;33.356;-117.184;2024-03-02T01:40:58;99590.91;;;28.05;29.42
47592;BME280;33317;33.356;-117.184;2024-03-02T01:43:26;99592.01;;;27.77;29.46
47592;BME280;33317;33.356;-117.184;2024-03-02T01:45:55;99590.90;;;28.07;29.65
47592;BME280;33317;33.356;-117.184;2024-03-02T01:48:23;99593.38;;;28.03;29.78
47592;BME280;33317;33.356;-117.184;2024-03-02T01:50:52;99596.65;;;28.00;29.69
47592;BME280;33317;33.356;-117.184;2024-03-02T01:53:20;99600.89;;;27.76;29.58
47592;BME280;33317;33.356;-117.184;2024-03-02T01:55:48;99604.71;;;28.01;29.59
47592;BME280;33317;33.356;-117.184;2024-03-02T01:58:17;99605.42;;;27.99;29.64
47592;BME280;33317;33.356;-117.184;2024-03-02T02:00:45;99609.78;;;28.03;29.69
47592;BME280;33317;33.356;-117.184;2024-03-02T02:03:13;99615.42;;;28.06;29.60
47592;BME280;33317;33.356;-117.184;2024-03-02T02:05:43;99619.53;;;28.06;29.60
47592;BME280;33317;33.356;-117.184;2024-03-02T02:08:11;99619.48;;;28.03;29.56
47592;BME280;33317;33.356;-117.184;2024-03-02T02:10:39;99616.07;;;27.89;29.69
47592;BME280;33317;33.356;-117.184;2024-03-02T02:13:08;99614.67;;;27.91;29.83
47592;BME280;33317;33.356;-117.184;2024-03-02T02:15:36;99617.29;;;27.68;29.65
47592;BME280;33317;33.356;-117.184;2024-03-02T02:18:05;99616.64;;;27.97;29.73
47592;BME280;33317;33.356;-117.184;2024-03-02T02:20:33;99616.61;;;27.92;29.83
47592;BME280;33317;33.356;-117.184;2024-03-02T02:23:02;99621.83;;;27.98;29.69
47592;BME280;33317;33.356;-117.184;2024-03-02T02:25:31;99618.67;;;27.90;29.85
47592;BME280;33317;33.356;-117.184;2024-03-02T02:28:01;99621.06;;;27.69;30.08
47592;BME280;33317;33.356;-117.184;2024-03-02T02:30:32;99620.79;;;27.76;30.22
47592;BME280;33317;33.356;-117.184;2024-03-02T02:33:00;99621.17;;;28.11;29.90
47592;BME280;33317;33.356;-117.184;2024-03-02T02:35:29;99623.06;;;27.65;29.96
47592;BME280;33317;33.356;-117.184;2024-03-02T02:37:57;99618.42;;;27.56;30.17
47592;BME280;33317;33.356;-117.184;2024-03-02T02:40:26;99622.64;;;27.73;30.18
47592;BME280;33317;33.356;-117.184;2024-03-02T02:42:56;99624.45;;;27.87;30.17
47592;BME280;33317;33.356;-117.184;2024-03-02T02:45:25;99621.90;;;27.53;30.40
47592;BME280;33317;33.356;-117.184;2024-03-02T02:47:54;99619.63;;;27.51;30.57
47592;BME280;33317;33.356;-117.184;2024-03-02T02:50:22;99612.85;;;27.19;30.55
47592;BME280;33317;33.356;-117.184;2024-03-02T02:52:51;99609.81;;;27.39;30.57
47592;BME280;33317;33.356;-117.184;2024-03-02T02:55:19;99605.81;;;27.32;30.80
47592;BME280;33317;33.356;-117.184;2024-03-02T02:57:49;99603.85;;;27.28;30.76
47592;BME280;33317;33.356;-117.184;2024-03-02T03:00:18;99607.81;;;27.17;30.90
47592;BME280;33317;33.356;-117.184;2024-03-02T03:02:49;99612.30;;;27.36;31.01
47592;BME280;33317;33.356;-117.184;2024-03-02T03:05:18;99609.06;;;27.27;31.07
47592;BME280;33317;33.356;-117.184;2024-03-02T03:07:47;99605.80;;;27.18;31.15
47592;BME280;33317;33.356;-117.184;2024-03-02T03:10:18;99603.45;;;27.00;31.33
47592;BME280;33317;33.356;-117.184;2024-03-02T03:12:48;99604.88;;;27.06;31.72
47592;BME280;33317;33.356;-117.184;2024-03-02T03:15:18;99605.48;;;26.79;31.47
47592;BME280;33317;33.356;-117.184;2024-03-02T03:17:46;99603.08;;;26.74;31.63
47592;BME280;33317;33.356;-117.184;2024-03-02T03:20:15;99603.21;;;26.57;31.81
47592;BME280;33317;33.356;-117.184;2024-03-02T03:22:43;99601.03;;;26.58;31.79
47592;BME280;33317;33.356;-117.184;2024-03-02T03:25:12;99602.33;;;26.49;31.84
47592;BME280;33317;33.356;-117.184;2024-03-02T03:27:41;99603.48;;;26.76;31.91
47592;BME280;33317;33.356;-117.184;2024-03-02T03:30:11;99606.96;;;26.46;31.80
47592;BME280;33317;33.356;-117.184;2024-03-02T03:32:40;99612.21;;;26.41;31.82
47592;BME280;33317;33.356;-117.184;2024-03-02T03:35:09;99620.76;;;26.48;31.80
47592;BME280;33317;33.356;-117.184;2024-03-02T03:37:39;99630.37;;;26.38;31.93
47592;BME280;33317;33.356;-117.184;2024-03-02T03:40:08;99637.20;;;26.90;31.82
47592;BME280;33317;33.356;-117.184;2024-03-02T03:42:37;99640.65;;;26.38;31.73
47592;BME280;33317;33.356;-117.184;2024-03-02T03:45:06;99641.92;;;26.41;31.80
47592;BME280;33317;33.356;-117.184;2024-03-02T03:47:35;99649.93;;;26.20;32.05
47592;BME280;33317;33.356;-117.184;2024-03-02T03:50:05;99654.10;;;26.25;32.02
47592;BME280;33317;33.356;-117.184;2024-03-02T03:52:34;99651.17;;;26.22;31.93
47592;BME280;33317;33.356;-117.184;2024-03-02T03:55:02;99645.71;;;26.42;31.60
47592;BME280;33317;33.356;-117.184;2024-03-02T03:57:31;99653.85;;;26.22;32.02
47592;BME280;33317;33.356;-117.184;2024-03-02T03:59:59;99661.37;;;26.47;32.24
47592;BME280;33317;33.356;-117.184;2024-03-02T04:02:27;99663.07;;;26.35;31.89
47592;BME280;33317;33.356;-117.184;2024-03-02T04:04:57;99660.89;;;26.11;32.30
47592;BME280;33317;33.356;-117.184;2024-03-02T04:07:26;99661.27;;;26.65;32.08
47592;BME280;33317;33.356;-117.184;2024-03-02T04:09:54;99659.11;;;26.49;31.62
47592;BME280;33317;33.356;-117.184;2024-03-02T04:12:23;99654.40;;;26.52;31.61
47592;BME280;33317;33.356;-117.184;2024-03-02T04:14:51;99653.44;;;26.89;31.46
47592;BME280;33317;33.356;-117.184;2024-03-02T04:17:19;99655.10;;;26.49;31.65
47592;BME280;33317;33.356;-117.184;2024-03-02T04:19:48;99650.11;;;26.46;31.81
47592;BME280;33317;33.356;-117.184;2024-03-02T04:22:16;99648.16;;;26.48;31.85
47592;BME280;33317;33.356;-117.184;2024-03-02T04:24:45;99647.09;;;26.43;31.89
47592;BME280;33317;33.356;-117.184;2024-03-02T04:27:13;99653.88;;;26.22;32.22
47592;BME280;33317;33.356;-117.184;2024-03-02T04:29:41;99654.11;;;26.47;32.27
47592;BME280;33317;33.356;-117.184;2024-03-02T04:32:10;99652.67;;;26.17;32.27
47592;BME280;33317;33.356;-117.184;2024-03-02T04:34:41;99649.46;;;26.24;32.19
47592;BME280;33317;33.356;-117.184;2024-03-02T04:37:11;99647.39;;;26.33;31.97
47592;BME280;33317;33.356;-117.184;2024-03-02T04:39:40;99645.05;;;26.26;32.10
47592;BME280;33317;33.356;-117.184;2024-03-02T04:42:09;99645.42;;;26.79;32.05
47592;BME280;33317;33.356;-117.184;2024-03-02T04:44:37;99642.35;;;26.16;32.24
47592;BME280;33317;33.356;-117.184;2024-03-02T04:47:06;99642.99;;;26.64;32.19
47592;BME280;33317;33.356;-117.184;2024-03-02T04:49:34;99644.40;;;26.38;32.22
47592;BME280;33317;33.356;-117.184;2024-03-02T04:52:02;99646.81;;;26.07;32.34
47592;BME280;33317;33.356;-117.184;2024-03-02T04:54:30;99647.40;;;26.10;32.67
47592;BME280;33317;33.356;-117.184;2024-03-02T04:56:59;99650.53;;;26.26;32.67
47592;BME280;33317;33.356;-117.184;2024-03-02T04:59:28;99652.07;;;25.65;32.87
47592;BME280;33317;33.356;-117.184;2024-03-02T05:01:56;99649.86;;;25.96;32.77
47592;BME280;33317;33.356;-117.184;2024-03-02T05:04:25;99652.51;;;25.67;32.80
47592;BME280;33317;33.356;-117.184;2024-03-02T05:06:53;99655.24;;;26.03;32.66
47592;BME280;33317;33.356;-117.184;2024-03-02T05:09:22;99655.04;;;26.06;32.55
47592;BME280;33317;33.356;-117.184;2024-03-02T05:11:50;99653.23;;;25.68;32.67
47592;BME280;33317;33.356;-117.184;2024-03-02T05:14:18;99658.56;;;25.92;32.75
47592;BME280;33317;33.356;-117.184;2024-03-02T05:16:47;99659.57;;;25.93;32.67
47592;BME280;33317;33.356;-117.184;2024-03-02T05:19:15;99662.67;;;26.04;32.78
47592;BME280;33317;33.356;-117.184;2024-03-02T05:21:44;99669.90;;;25.64;33.04
47592;BME280;33317;33.356;-117.184;2024-03-02T05:24:12;99670.58;;;26.08;32.74
47592;BME280;33317;33.356;-117.184;2024-03-02T05:26:40;99669.27;;;26.01;32.84
47592;BME280;33317;33.356;-117.184;2024-03-02T05:29:10;99662.39;;;25.94;32.53
47592;BME280;33317;33.356;-117.184;2024-03-02T05:31:38;99661.33;;;26.23;32.40
47592;BME280;33317;33.356;-117.184;2024-03-02T05:34:07;99661.56;;;25.92;32.50
47592;BME280;33317;33.356;-117.184;2024-03-02T05:36:35;99662.47;;;26.12;32.65
47592;BME280;33317;33.356;-117.184;2024-03-02T05:39:04;99659.02;;;25.82;32.49
47592;BME280;33317;33.356;-117.184;2024-03-02T05:41:32;99656.36;;;25.81;32.57
47592;BME280;33317;33.356;-117.184;2024-03-02T05:44:01;99659.13;;;26.00;32.65
47592;BME280;33317;33.356;-117.184;2024-03-02T05:46:29;99656.95;;;25.96;32.76
47592;BME280;33317;33.356;-117.184;2024-03-02T05:48:58;99651.97;;;25.98;32.66
47592;BME280;33317;33.356;-117.184;2024-03-02T05:51:26;99649.49;;;26.13;32.40
47592;BME280;33317;33.356;-117.184;2024-03-02T05:53:55;99649.54;;;26.15;32.30
47592;BME280;33317;33.356;-117.184;2024-03-02T05:56:24;99652.30;;;26.17;32.35
47592;BME280;33317;33.356;-117.184;2024-03-02T05:58:53;99653.89;;;26.10;32.39
47592;BME280;33317;33.356;-117.184;2024-03-02T06:01:20;99653.50;;;25.58;32.40
47592;BME280;33317;33.356;-117.184;2024-03-02T06:03:49;99650.03;;;25.97;32.55
47592;BME280;33317;33.356;-117.184;2024-03-02T06:06:18;99648.43;;;25.81;32.35
47592;BME280;33317;33.356;-117.184;2024-03-02T06:08:46;99643.50;;;26.10;32.26
47592;BME280;33317;33.356;-117.184;2024-03-02T06:11:15;99648.22;;;25.55;32.85
47592;BME280;33317;33.356;-117.184;2024-03-02T06:13:43;99647.84;;;25.67;32.55
47592;BME280;33317;33.356;-117.184;2024-03-02T06:16:11;99648.32;;;25.84;32.60
47592;BME280;33317;33.356;-117.184;2024-03-02T06:18:40;99648.88;;;25.83;32.68
47592;BME280;33317;33.356;-117.184;2024-03-02T06:21:08;99645.07;;;25.80;32.68
47592;BME280;33317;33.356;-117.184;2024-03-02T06:23:36;99645.18;;;25.78;32.62
47592;BME280;33317;33.356;-117.184;2024-03-02T06:26:05;99646.06;;;25.44;32.83
47592;BME280;33317;33.356;-117.184;2024-03-02T06:28:33;99646.29;;;25.66;32.78
47592;BME280;33317;33.356;-117.184;2024-03-02T06:31:02;99644.50;;;25.51;32.60
47592;BME280;33317;33.356;-117.184;2024-03-02T06:33:32;99641.74;;;25.78;32.52
47592;BME280;33317;33.356;-117.184;2024-03-02T06:36:00;99638.84;;;25.69;32.69
47592;BME280;33317;33.356;-117.184;2024-03-02T06:38:29;99634.43;;;25.76;32.52
47592;BME280;33317;33.356;-117.184;2024-03-02T06:40:57;99635.23;;;25.93;32.30
47592;BME280;33317;33.356;-117.184;2024-03-02T06:43:25;99639.04;;;25.85;32.51
47592;BME280;33317;33.356;-117.184;2024-03-02T06:45:54;99641.98;;;25.73;32.56
47592;BME280;33317;33.356;-117.184;2024-03-02T06:48:23;99636.74;;;25.34;32.41
47592;BME280;33317;33.356;-117.184;2024-03-02T06:50:52;99634.88;;;25.81;32.42
47592;BME280;33317;33.356;-117.184;2024-03-02T06:53:20;99634.33;;;25.40;32.54
47592;BME280;33317;33.356;-117.184;2024-03-02T06:55:48;99633.65;;;25.65;32.50
47592;BME280;33317;33.356;-117.184;2024-03-02T06:58:16;99631.03;;;25.83;32.25
47592;BME280;33317;33.356;-117.184;2024-03-02T07:00:45;99626.58;;;25.83;32.27
47592;BME280;33317;33.356;-117.184;2024-03-02T07:03:14;99629.19;;;25.64;32.59
47592;BME280;33317;33.356;-117.184;2024-03-02T07:05:42;99636.28;;;25.77;32.34
47592;BME280;33317;33.356;-117.184;2024-03-02T07:08:11;99634.37;;;25.84;32.23
47592;BME280;33317;33.356;-117.184;2024-03-02T07:10:39;99626.24;;;25.67;32.16
47592;BME280;33317;33.356;-117.184;2024-03-02T07:13:07;99617.71;;;26.03;31.94
47592;BME280;33317;33.356;-117.184;2024-03-02T07:15:36;99614.90;;;25.97;32.02
47592;BME280;33317;33.356;-117.184;2024-03-02T07:18:04;99611.45;;;25.96;32.04
47592;BME280;33317;33.356;-117.184;2024-03-02T07:20:33;99608.23;;;25.98;31.92
47592;BME280;33317;33.356;-117.184;2024-03-02T07:23:01;99608.65;;;25.63;32.17
47592;BME280;33317;33.356;-117.184;2024-03-02T07:25:29;99612.20;;;25.91;32.02
47592;BME280;33317;33.356;-117.184;2024-03-02T07:27:58;99612.22;;;25.76;31.95
47592;BME280;33317;33.356;-117.184;2024-03-02T07:30:26;99611.64;;;25.89;32.06
47592;BME280;33317;33.356;-117.184;2024-03-02T07:32:55;99609.00;;;25.81;32.09
47592;BME280;33317;33.356;-117.184;2024-03-02T07:35:23;99605.55;;;25.83;32.06
47592;BME280;33317;33.356;-117.184;2024-03-02T07:37:51;99601.34;;;25.69;32.24
47592;BME280;33317;33.356;-117.184;2024-03-02T07:40:20;99604.27;;;25.75;32.18
47592;BME280;33317;33.356;-117.184;2024-03-02T07:42:48;99605.87;;;25.73;32.15
47592;BME280;33317;33.356;-117.184;2024-03-02T07:45:17;99606.00;;;25.57;32.41
47592;BME280;33317;33.356;-117.184;2024-03-02T07:47:46;99607.85;;;25.64;32.27
47592;BME280;33317;33.356;-117.184;2024-03-02T07:50:14;99606.16;;;25.63;32.27
47592;BME280;33317;33.356;-117.184;2024-03-02T07:52:43;99607.99;;;25.65;32.24
47592;BME280;33317;33.356;-117.184;2024-03-02T07:55:12;99607.46;;;25.57;32.31
47592;BME280;33317;33.356;-117.184;2024-03-02T07:57:41;99605.18;;;25.57;32.28
47592;BME280;33317;33.356;-117.184;2024-03-02T08:00:09;99604.49;;;25.52;32.36
47592;BME280;33317;33.356;-117.184;2024-03-02T08:02:38;99607.96;;;25.64;32.23
47592;BME280;33317;33.356;-117.184;2024-03-02T08:05:07;99614.40;;;25.54;32.23
47592;BME280;33317;33.356;-117.184;2024-03-02T08:07:35;99612.87;;;25.60;32.12
47592;BME280;33317;33.356;-117.184;2024-03-02T08:10:05;99617.58;;;25.48;32.30
47592;BME280;33317;33.356;-117.184;2024-03-02T08:12:33;99614.19;;;25.64;32.33
47592;BME280;33317;33.356;-117.184;2024-03-02T08:15:01;99612.47;;;25.38;32.32
47592;BME280;33317;33.356;-117.184;2024-03-02T08:17:30;99613.60;;;25.45;32.24
47592;BME280;33317;33.356;-117.184;2024-03-02T08:19:58;99611.08;;;25.29;32.40
47592;BME280;33317;33.356;-117.184;2024-03-02T08:22:27;99609.91;;;25.33;32.37
47592;BME280;33317;33.356;-117.184;2024-03-02T08:24:55;99607.71;;;25.33;32.33
47592;BME280;33317;33.356;-117.184;2024-03-02T08:27:23;99600.11;;;25.29;32.37
47592;BME280;33317;33.356;-117.184;2024-03-02T08:29:52;99603.36;;;25.27;32.33
47592;BME280;33317;33.356;-117.184;2024-03-02T08:32:20;99604.90;;;25.33;32.21
47592;BME280;33317;33.356;-117.184;2024-03-02T08:34:48;99604.85;;;25.25;32.30
47592;BME280;33317;33.356;-117.184;2024-03-02T08:37:17;99601.05;;;25.19;32.38
47592;BME280;33317;33.356;-117.184;2024-03-02T08:39:46;99606.08;;;25.41;32.45
47592;BME280;33317;33.356;-117.184;2024-03-02T08:42:14;99605.03;;;25.24;32.29
47592;BME280;33317;33.356;-117.184;2024-03-02T08:44:43;99600.18;;;25.14;32.41
47592;BME280;33317;33.356;-117.184;2024-03-02T08:47:11;99597.56;;;25.15;32.40
47592;BME280;33317;33.356;-117.184;2024-03-02T08:49:40;99599.65;;;24.97;32.59
47592;BME280;33317;33.356;-117.184;2024-03-02T08:52:08;99601.34;;;24.94;32.56
47592;BME280;33317;33.356;-117.184;2024-03-02T08:54:36;99598.49;;;25.00;32.45
47592;BME280;33317;33.356;-117.184;2024-03-02T08:57:05;99593.49;;;25.00;32.80
47592;BME280;33317;33.356;-117.184;2024-03-02T08:59:34;99589.28;;;24.73;32.80
47592;BME280;33317;33.356;-117.184;2024-03-02T09:02:03;99582.15;;;25.08;32.62
47592;BME280;33317;33.356;-117.184;2024-03-02T09:04:31;99581.81;;;24.73;32.77
47592;BME280;33317;33.356;-117.184;2024-03-02T09:06:59;99579.33;;;24.66;32.73
47592;BME280;33317;33.356;-117.184;2024-03-02T09:09:28;99581.76;;;24.54;32.99
47592;BME280;33317;33.356;-117.184;2024-03-02T09:11:56;99587.03;;;24.73;33.04
47592;BME280;33317;33.356;-117.184;2024-03-02T09:14:25;99585.13;;;24.91;32.81
47592;BME280;33317;33.356;-117.184;2024-03-02T09:16:53;99575.22;;;24.68;32.77
47592;BME280;33317;33.356;-117.184;2024-03-02T09:19:21;99573.55;;;24.88;32.85
47592;BME280;33317;33.356;-117.184;2024-03-02T09:21:50;99566.34;;;24.77;32.56
47592;BME280;33317;33.356;-117.184;2024-03-02T09:24:18;99561.44;;;24.66;32.72
47592;BME280;33317;33.356;-117.184;2024-03-02T09:26:46;99558.14;;;25.25;32.56
47592;BME280;33317;33.356;-117.184;2024-03-02T09:29:15;99556.56;;;24.71;32.67
47592;BME280;33317;33.356;-117.184;2024-03-02T09:31:44;99549.14;;;24.68;32.68
47592;BME280;33317;33.356;-117.184;2024-03-02T09:34:13;99544.14;;;24.79;32.83
47592;BME280;33317;33.356;-117.184;2024-03-02T09:36:41;99539.58;;;24.88;32.65
47592;BME280;33317;33.356;-117.184;2024-03-02T09:39:10;99538.36;;;24.71;32.59
47592;BME280;33317;33.356;-117.184;2024-03-02T09:41:38;99532.98;;;24.62;32.71
47592;BME280;33317;33.356;-117.184;2024-03-02T09:44:06;99529.51;;;24.87;32.72
47592;BME280;33317;33.356;-117.184;2024-03-02T09:46:35;99522.31;;;24.58;32.75
47592;BME280;33317;33.356;-117.184;2024-03-02T09:49:03;99517.18;;;24.65;32.62
47592;BME280;33317;33.356;-117.184;2024-03-02T09:51:32;99506.96;;;24.76;32.49
47592;BME280;33317;33.356;-117.184;2024-03-02T09:54:01;99501.84;;;24.96;32.60
47592;BME280;33317;33.356;-117.184;2024-03-02T09:56:30;99499.99;;;25.25;32.46
47592;BME280;33317;33.356;-117.184;2024-03-02T09:58:58;99497.90;;;25.21;32.50
47592;BME280;33317;33.356;-117.184;2024-03-02T10:01:26;99500.01;;;24.76;32.43
47592;BME280;33317;33.356;-117.184;2024-03-02T10:03:56;99501.76;;;24.80;32.73
47592;BME280;33317;33.356;-117.184;2024-03-02T10:06:27;99498.40;;;25.15;32.55
47592;BME280;33317;33.356;-117.184;2024-03-02T10:08:56;99495.18;;;25.23;32.50
47592;BME280;33317;33.356;-117.184;2024-03-02T10:11:29;99496.67;;;24.90;32.62
47592;BME280;33317;33.356;-117.184;2024-03-02T10:14:05;99493.39;;;24.83;32.40
47592;BME280;33317;33.356;-117.184;2024-03-02T10:16:34;99495.27;;;24.72;32.52
47592;BME280;33317;33.356;-117.184;2024-03-02T10:19:17;99488.61;;;24.62;32.65
47592;BME280;33317;33.356;-117.184;2024-03-02T10:21:46;99487.15;;;24.81;32.75
47592;BME280;33317;33.356;-117.184;2024-03-02T10:24:15;99489.52;;;24.62;32.97
47592;BME280;33317;33.356;-117.184;2024-03-02T10:26:43;99491.04;;;25.11;32.92
47592;BME280;33317;33.356;-117.184;2024-03-02T10:29:12;99490.05;;;24.64;32.95
47592;BME280;33317;33.356;-117.184;2024-03-02T10:31:43;99481.43;;;24.13;33.27
47592;BME280;33317;33.356;-117.184;2024-03-02T10:34:12;99469.75;;;24.64;32.91
47592;BME280;33317;33.356;-117.184;2024-03-02T10:36:43;99458.91;;;24.77;32.96
47592;BME280;33317;33.356;-117.184;2024-03-02T10:39:14;99464.46;;;24.58;33.23
47592;BME280;33317;33.356;-117.184;2024-03-02T10:41:42;99456.32;;;24.88;32.80
47592;BME280;33317;33.356;-117.184;2024-03-02T10:44:11;99456.57;;;24.71;33.07
47592;BME280;33317;33.356;-117.184;2024-03-02T10:46:40;99456.16;;;24.63;33.12
47592;BME280;33317;33.356;-117.184;2024-03-02T10:49:08;99443.28;;;24.77;32.96
47592;BME280;33317;33.356;-117.184;2024-03-02T10:51:37;99438.58;;;24.56;33.16
47592;BME280;33317;33.356;-117.184;2024-03-02T10:54:05;99435.23;;;24.76;32.91
47592;BME280;33317;33.356;-117.184;2024-03-02T10:56:37;99432.64;;;24.70;32.65
47592;BME280;33317;33.356;-117.184;2024-03-02T10:59:16;99424.29;;;24.62;32.75
47592;BME280;33317;33.356;-117.184;2024-03-02T11:01:47;99418.20;;;24.63;32.69
47592;BME280;33317;33.356;-117.184;2024-03-02T11:04:18;99412.94;;;24.51;32.81
47592;BME280;33317;33.356;-117.184;2024-03-02T11:06:49;99409.53;;;24.11;32.99
47592;BME280;33317;33.356;-117.184;2024-03-02T11:09:21;99411.29;;;24.49;32.86
47592;BME280;33317;33.356;-117.184;2024-03-02T11:11:56;99411.47;;;24.79;32.72
47592;BME280;33317;33.356;-117.184;2024-03-02T11:14:26;99409.05;;;24.57;33.01
47592;BME280;33317;33.356;-117.184;2024-03-02T11:16:54;99406.45;;;24.58;33.31
47592;BME280;33317;33.356;-117.184;2024-03-02T11:19:23;99403.75;;;23.99;33.52
47592;BME280;33317;33.356;-117.184;2024-03-02T11:21:52;99398.45;;;24.25;33.39
47592;BME280;33317;33.356;-117.184;2024-03-02T11:24:30;99394.07;;;24.24;33.40
47592;BME280;33317;33.356;-117.184;2024-03-02T11:26:59;99394.50;;;24.23;33.47
47592;BME280;33317;33.356;-117.184;2024-03-02T11:29:44;99397.45;;;24.23;33.44
47592;BME280;33317;33.356;-117.184;2024-03-02T11:32:19;99389.05;;;24.22;33.50
47592;BME280;33317;33.356;-117.184;2024-03-02T11:34:50;99386.97;;;23.98;33.50
47592;BME280;33317;33.356;-117.184;2024-03-02T11:37:19;99383.03;;;24.23;33.47
47592;BME280;33317;33.356;-117.184;2024-03-02T11:39:50;99382.34;;;24.16;33.56
47592;BME280;33317;33.356;-117.184;2024-03-02T11:42:19;99382.62;;;24.27;33.38
47592;BME280;33317;33.356;-117.184;2024-03-02T11:44:47;99387.73;;;24.04;33.70
47592;BME280;33317;33.356;-117.184;2024-03-02T11:47:17;99379.30;;;23.99;33.45
47592;BME280;33317;33.356;-117.184;2024-03-02T11:49:48;99374.87;;;24.25;33.37
47592;BME280;33317;33.356;-117.184;2024-03-02T11:52:17;99367.67;;;24.05;33.59
47592;BME280;33317;33.356;-117.184;2024-03-02T11:54:47;99365.35;;;24.46;33.05
47592;BME280;33317;33.356;-117.184;2024-03-02T11:57:18;99364.42;;;24.48;33.00
47592;BME280;33317;33.356;-117.184;2024-03-02T11:59:46;99362.46;;;24.04;32.94
47592;BME280;33317;33.356;-117.184;2024-03-02T12:02:17;99356.99;;;24.44;33.03
47592;BME280;33317;33.356;-117.184;2024-03-02T12:04:47;99352.70;;;24.44;32.95
47592;BME280;33317;33.356;-117.184;2024-03-02T12:07:20;99353.60;;;24.21;32.95
47592;BME280;33317;33.356;-117.184;2024-03-02T12:09:48;99358.31;;;24.31;32.83
47592;BME280;33317;33.356;-117.184;2024-03-02T12:12:16;99357.74;;;24.45;32.93
47592;BME280;33317;33.356;-117.184;2024-03-02T12:14:51;99360.81;;;24.26;33.20
47592;BME280;33317;33.356;-117.184;2024-03-02T12:17:19;99372.73;;;24.31;33.12
47592;BME280;33317;33.356;-117.184;2024-03-02T12:19:48;99375.87;;;24.16;33.33
47592;BME280;33317;33.356;-117.184;2024-03-02T12:22:16;99379.94;;;24.09;33.42
47592;BME280;33317;33.356;-117.184;2024-03-02T12:24:45;99374.12;;;23.63;34.00
47592;BME280;33317;33.356;-117.184;2024-03-02T12:27:13;99373.38;;;23.75;33.82
47592;BME280;33317;33.356;-117.184;2024-03-02T12:29:42;99370.01;;;23.75;33.84
47592;BME280;33317;33.356;-117.184;2024-03-02T12:32:11;99365.45;;;23.84;33.68
47592;BME280;33317;33.356;-117.184;2024-03-02T12:34:39;99354.40;;;24.06;33.65
47592;BME280;33317;33.356;-117.184;2024-03-02T12:37:07;99349.32;;;23.97;33.70
47592;BME280;33317;33.356;-117.184;2024-03-02T12:39:39;99351.32;;;23.58;33.94